createdAt,value
2022-11-24T00:01:27.146Z,87.00
2022-11-24T00:03:55.928Z,86.85
2022-11-24T00:06:24.307Z,87.57
2022-11-24T00:08:52.171Z,88.02
2022-11-24T00:11:23.108Z,87.49
2022-11-24T00:13:51.148Z,87.88
2022-11-24T00:16:23.238Z,88.33
2022-11-24T00:18:52.636Z,88.14
2022-11-24T00:21:21.510Z,87.52
2022-11-24T00:23:50.166Z,87.32
2022-11-24T00:26:21.563Z,87.27
2022-11-24T00:28:53.029Z,87.96
2022-11-24T00:31:31.876Z,87.82
2022-11-24T00:34:02.549Z,88.14
2022-11-24T00:36:32.239Z,87.99
2022-11-24T00:39:06.110Z,87.88
2022-11-24T00:41:34.289Z,88.13
2022-11-24T00:44:01.900Z,88.04
2022-11-24T00:46:30.107Z,88.20
2022-11-24T00:48:58.162Z,88.36
2022-11-24T00:51:28.039Z,88.04
2022-11-24T00:53:56.648Z,88.77
2022-11-24T00:56:25.433Z,88.23
2022-11-24T00:58:53.072Z,88.47
2022-11-24T01:01:23.388Z,87.97
2022-11-24T01:03:51.978Z,88.21
2022-11-24T01:06:22.191Z,88.88
2022-11-24T01:08:50.406Z,88.60
2022-11-24T01:11:24.132Z,87.86
2022-11-24T01:13:57.499Z,88.90
2022-11-24T01:16:31.457Z,89.43
2022-11-24T01:18:59.106Z,89.85
2022-11-24T01:21:26.632Z,89.59
2022-11-24T01:23:54.147Z,89.23
2022-11-24T01:26:22.773Z,89.91
2022-11-24T01:28:58.616Z,89.88
2022-11-24T01:31:26.604Z,86.56
2022-11-24T01:33:55.630Z,83.99
2022-11-24T01:36:23.208Z,83.35
2022-11-24T01:38:51.422Z,82.90
2022-11-24T01:41:21.887Z,82.42
2022-11-24T01:43:50.936Z,83.45
2022-11-24T01:46:42.205Z,82.26
2022-11-24T01:49:09.692Z,82.10
2022-11-24T01:51:45.525Z,81.41
2022-11-24T01:54:22.062Z,81.42
2022-11-24T01:56:53.518Z,81.96
2022-11-24T01:59:23.046Z,81.26
2022-11-24T02:01:52.314Z,80.23
2022-11-24T02:04:24.597Z,81.30
2022-11-24T02:06:53.984Z,81.39
2022-11-24T02:09:33.308Z,80.94
2022-11-24T02:12:02.076Z,81.61
2022-11-24T02:14:29.829Z,81.85
2022-11-24T02:16:57.322Z,82.23
2022-11-24T02:19:40.233Z,83.58
2022-11-24T02:22:15.301Z,81.36
2022-11-24T02:25:11.730Z,81.87
2022-11-24T02:27:39.311Z,82.66
2022-11-24T02:30:07.234Z,83.31
2022-11-24T02:32:35.029Z,83.20
2022-11-24T02:35:05.260Z,81.59
2022-11-24T02:37:32.697Z,81.28
2022-11-24T02:40:06.206Z,80.79
2022-11-24T02:42:39.952Z,81.75
2022-11-24T02:45:09.771Z,81.22
2022-11-24T02:47:37.296Z,81.67
2022-11-24T02:50:05.174Z,82.00
2022-11-24T02:52:32.944Z,80.38
2022-11-24T02:55:00.535Z,80.33
2022-11-24T02:57:27.998Z,80.87
2022-11-24T02:59:55.930Z,80.42
2022-11-24T03:02:23.680Z,80.80
2022-11-24T03:04:51.273Z,79.94
2022-11-24T03:07:19.286Z,81.05
2022-11-24T03:09:46.864Z,82.21
2022-11-24T03:12:14.665Z,83.30
2022-11-24T03:14:42.251Z,80.94
2022-11-24T03:17:09.709Z,82.33
2022-11-24T03:19:37.451Z,83.38
2022-11-24T03:22:05.075Z,82.99
2022-11-24T03:24:32.788Z,84.06
2022-11-24T03:27:01.049Z,82.65
2022-11-24T03:29:28.825Z,82.00
2022-11-24T03:31:56.282Z,82.05
2022-11-24T03:34:23.729Z,83.82
2022-11-24T03:36:51.174Z,82.55
2022-11-24T03:39:18.690Z,80.30
2022-11-24T03:41:46.252Z,80.46
2022-11-24T03:44:13.793Z,79.97
2022-11-24T03:46:41.377Z,79.91
2022-11-24T03:49:09.067Z,79.29
2022-11-24T03:51:36.555Z,79.94
2022-11-24T03:54:04.178Z,79.90
2022-11-24T03:56:31.682Z,79.40
2022-11-24T03:58:59.816Z,80.52
2022-11-24T04:01:27.318Z,80.27
2022-11-24T04:03:54.941Z,80.99
2022-11-24T04:06:22.463Z,80.28
2022-11-24T04:08:49.934Z,79.89
2022-11-24T04:11:35.661Z,79.41
2022-11-24T04:14:03.107Z,78.67
2022-11-24T04:16:30.572Z,78.91
2022-11-24T04:18:58.174Z,79.42
2022-11-24T04:21:25.780Z,79.16
2022-11-24T04:23:53.237Z,80.63
2022-11-24T04:26:20.713Z,81.51
2022-11-24T04:28:49.334Z,80.32
2022-11-24T04:31:16.958Z,80.34
2022-11-24T04:33:44.608Z,79.07
2022-11-24T04:36:12.192Z,79.34
2022-11-24T04:39:24.689Z,79.82
2022-11-24T04:41:27.357Z,79.26
2022-11-24T04:43:54.843Z,79.26
2022-11-24T04:46:22.309Z,79.20
2022-11-24T04:48:49.802Z,79.04
2022-11-24T04:51:17.407Z,78.71
2022-11-24T04:53:44.958Z,79.41
2022-11-24T04:56:12.424Z,80.15
2022-11-24T04:58:40.003Z,80.42
2022-11-24T05:01:08.666Z,80.89
2022-11-24T05:03:36.997Z,81.17
2022-11-24T05:06:04.946Z,80.24
2022-11-24T05:08:32.670Z,79.42
2022-11-24T05:11:07.475Z,80.72
2022-11-24T05:13:34.928Z,78.69
2022-11-24T05:16:02.524Z,80.21
2022-11-24T05:18:30.265Z,79.90
2022-11-24T05:20:58.610Z,79.54
2022-11-24T05:23:26.157Z,78.50
2022-11-24T05:25:53.906Z,79.43
2022-11-24T05:28:21.492Z,78.90
2022-11-24T05:30:49.193Z,79.49
2022-11-24T05:33:19.189Z,78.84
2022-11-24T05:35:48.329Z,78.24
2022-11-24T05:38:17.639Z,78.82
2022-11-24T05:40:45.327Z,77.63
2022-11-24T05:43:16.898Z,77.54
2022-11-24T05:45:45.050Z,78.84
2022-11-24T05:48:15.793Z,77.16
2022-11-24T05:50:44.748Z,78.34
2022-11-24T05:53:13.235Z,78.17
2022-11-24T05:55:40.998Z,79.08
2022-11-24T05:58:10.098Z,77.06
2022-11-24T06:00:37.631Z,77.05
2022-11-24T06:03:05.362Z,77.23
2022-11-24T06:05:34.408Z,78.49
2022-11-24T06:08:03.290Z,77.04
2022-11-24T06:10:31.464Z,78.09
2022-11-24T06:12:59.335Z,76.64
2022-11-24T06:15:26.880Z,79.21
2022-11-24T06:17:55.850Z,77.13
2022-11-24T06:20:32.252Z,76.53
2022-11-24T06:23:01.261Z,75.21
2022-11-24T06:25:29.332Z,74.80
2022-11-24T06:27:57.320Z,75.48
2022-11-24T06:30:24.929Z,74.69
2022-11-24T06:32:55.561Z,75.77
2022-11-24T06:35:24.310Z,75.37
2022-11-24T06:37:52.163Z,76.96
2022-11-24T06:40:19.775Z,76.01
2022-11-24T06:42:52.290Z,75.84
2022-11-24T06:45:19.735Z,76.22
2022-11-24T06:47:47.274Z,76.32
2022-11-24T06:50:14.930Z,76.01
2022-11-24T06:52:42.449Z,76.26
2022-11-24T06:55:10.088Z,76.55
2022-11-24T06:57:37.652Z,76.43
2022-11-24T07:00:07.252Z,76.61
2022-11-24T07:02:34.861Z,76.32
2022-11-24T07:05:02.744Z,75.88
2022-11-24T07:07:31.090Z,74.92
2022-11-24T07:09:59.232Z,73.71
2022-11-24T07:12:29.266Z,72.97
2022-11-24T07:14:56.811Z,73.20
2022-11-24T07:17:24.270Z,72.69
2022-11-24T07:19:51.913Z,73.10
2022-11-24T07:22:19.407Z,72.32
2022-11-24T07:24:46.827Z,72.81
2022-11-24T07:27:14.326Z,72.93
2022-11-24T07:29:41.795Z,73.46
2022-11-24T07:32:11.264Z,73.58
2022-11-24T07:34:39.096Z,73.67
2022-11-24T07:37:06.689Z,72.48
2022-11-24T07:39:34.244Z,72.70
2022-11-24T07:42:01.963Z,72.62
2022-11-24T07:44:29.529Z,72.71
2022-11-24T07:46:57.076Z,73.31
2022-11-24T07:49:24.526Z,73.23
2022-11-24T07:51:52.385Z,73.61
2022-11-24T07:54:20.625Z,74.88
2022-11-24T07:56:49.079Z,73.46
2022-11-24T07:59:16.676Z,73.86
2022-11-24T08:01:45.317Z,74.54
2022-11-24T08:04:12.953Z,74.15
2022-11-24T08:06:45.942Z,75.13
2022-11-24T08:09:14.719Z,73.80
2022-11-24T08:11:42.217Z,74.05
2022-11-24T08:14:09.736Z,74.16
2022-11-24T08:16:37.344Z,73.45
2022-11-24T08:19:04.857Z,72.16
2022-11-24T08:21:32.648Z,73.09
2022-11-24T08:24:00.111Z,71.33
2022-11-24T08:26:27.601Z,70.49
2022-11-24T08:28:57.648Z,70.81
2022-11-24T08:31:32.671Z,71.08
2022-11-24T08:34:01.848Z,70.59
2022-11-24T08:36:29.994Z,68.88
2022-11-24T08:38:59.484Z,70.26
2022-11-24T08:41:28.783Z,71.39
2022-11-24T08:43:56.585Z,69.72
2022-11-24T08:46:24.360Z,70.20
2022-11-24T08:48:53.850Z,70.99
2022-11-24T08:51:24.310Z,71.15
2022-11-24T08:53:56.561Z,71.11
2022-11-24T08:56:25.613Z,72.10
2022-11-24T08:58:55.148Z,71.02
2022-11-24T09:01:23.727Z,70.93
2022-11-24T09:03:51.905Z,70.74
2022-11-24T09:06:25.001Z,71.78
2022-11-24T09:08:54.611Z,71.21
2022-11-24T09:11:22.639Z,71.17
2022-11-24T09:13:50.526Z,71.79
2022-11-24T09:16:22.101Z,70.86
2022-11-24T09:18:55.605Z,71.26
2022-11-24T09:21:24.094Z,70.93
2022-11-24T09:23:53.347Z,70.91
2022-11-24T09:26:24.405Z,71.11
2022-11-24T09:28:54.604Z,69.52
2022-11-24T09:31:28.424Z,70.38
2022-11-24T09:33:56.795Z,71.16
2022-11-24T09:36:25.037Z,71.65
2022-11-24T09:38:52.709Z,71.43
2022-11-24T09:41:23.206Z,71.03
2022-11-24T09:44:27.152Z,71.27
2022-11-24T09:47:13.248Z,71.34
2022-11-24T09:49:59.618Z,72.63
2022-11-24T09:52:50.176Z,71.75
2022-11-24T09:55:28.024Z,70.73
2022-11-24T09:58:18.407Z,71.18
2022-11-24T10:00:48.622Z,71.23
2022-11-24T10:03:23.422Z,71.31
2022-11-24T10:05:51.626Z,71.78
2022-11-24T10:08:34.842Z,71.42
2022-11-24T10:11:11.472Z,71.31
2022-11-24T10:13:42.940Z,71.91
2022-11-24T10:16:31.688Z,70.97
2022-11-24T10:19:21.989Z,71.36
2022-11-24T10:21:57.396Z,70.67
2022-11-24T10:24:27.823Z,71.46
2022-11-24T10:27:17.502Z,71.38
2022-11-24T10:29:49.983Z,71.18
2022-11-24T10:32:26.661Z,70.29
2022-11-24T10:34:59.041Z,70.03
2022-11-24T10:37:35.307Z,70.77
2022-11-24T10:40:10.849Z,69.46
2022-11-24T10:42:45.707Z,70.58
2022-11-24T10:45:16.032Z,69.76
2022-11-24T10:47:44.613Z,69.35
2022-11-24T10:50:27.238Z,69.15
2022-11-24T10:53:19.083Z,69.64
2022-11-24T10:55:55.975Z,68.59
2022-11-24T10:58:38.013Z,69.42
2022-11-24T11:01:15.632Z,69.29
2022-11-24T11:03:49.389Z,68.17
2022-11-24T11:06:32.534Z,67.47
2022-11-24T11:09:06.194Z,67.18
2022-11-24T11:11:35.569Z,66.81
2022-11-24T11:14:05.729Z,66.03
2022-11-24T11:16:53.361Z,67.61
2022-11-24T11:19:58.425Z,67.34
2022-11-24T11:22:29.909Z,66.42
2022-11-24T11:25:24.644Z,67.11
2022-11-24T11:28:14.999Z,67.68
2022-11-24T11:31:18.148Z,66.88
2022-11-24T11:34:06.150Z,66.35
2022-11-24T11:36:43.592Z,66.40
2022-11-24T11:39:31.721Z,66.37
2022-11-24T11:45:28.022Z,65.77
2022-11-24T11:48:01.385Z,65.96
2022-11-24T11:50:47.486Z,67.61
2022-11-24T11:53:29.500Z,66.96
2022-11-24T11:56:06.887Z,67.29
2022-11-24T11:58:55.720Z,65.20
2022-11-24T12:02:00.948Z,66.23
2022-11-24T12:04:47.003Z,67.73
2022-11-24T12:07:38.724Z,66.46
2022-11-24T12:10:18.950Z,66.30
2022-11-24T12:12:56.908Z,66.37
2022-11-24T12:15:40.256Z,65.87
2022-11-24T12:18:56.041Z,66.72
2022-11-24T12:21:26.209Z,66.83
2022-11-24T12:24:18.819Z,67.05
2022-11-24T12:26:56.781Z,66.64
2022-11-24T12:30:10.724Z,66.26
2022-11-24T12:33:00.346Z,65.27
2022-11-24T12:35:46.249Z,64.69
2022-11-24T12:38:41.608Z,64.54
2022-11-24T12:41:44.699Z,62.34
2022-11-24T12:44:39.766Z,56.60
2022-11-24T12:47:16.403Z,60.28
2022-11-24T12:49:57.082Z,63.59
2022-11-24T12:52:39.814Z,66.92
2022-11-24T12:55:17.141Z,67.01
2022-11-24T12:57:49.529Z,68.10
2022-11-24T13:00:23.467Z,67.71
2022-11-24T13:02:57.419Z,69.04
2022-11-24T13:05:58.878Z,68.68
2022-11-24T13:08:28.130Z,69.11
2022-11-24T13:11:21.105Z,69.86
2022-11-24T13:14:00.837Z,69.75
2022-11-24T13:16:44.465Z,70.62
2022-11-24T13:19:22.475Z,70.47
2022-11-24T13:22:08.321Z,70.94
2022-11-24T13:24:38.746Z,70.04
2022-11-24T13:27:19.755Z,69.46
2022-11-24T13:29:49.756Z,70.88
2022-11-24T13:32:22.814Z,70.70
2022-11-24T13:34:54.895Z,70.52
2022-11-24T13:37:33.640Z,70.51
2022-11-24T13:40:23.074Z,70.55
2022-11-24T13:43:02.539Z,70.69
2022-11-24T13:45:39.038Z,71.10
2022-11-24T13:48:19.200Z,71.10
2022-11-24T13:50:49.718Z,71.71
2022-11-24T13:53:45.044Z,71.66
2022-11-24T13:56:12.443Z,71.71
2022-11-24T13:59:00.133Z,72.03
2022-11-24T14:01:33.150Z,72.01
2022-11-24T14:04:31.496Z,71.70
2022-11-24T14:07:09.818Z,71.08
2022-11-24T14:09:47.088Z,71.24
2022-11-24T14:12:25.248Z,70.97
2022-11-24T14:14:57.016Z,72.63
2022-11-24T14:17:28.058Z,72.05
2022-11-24T14:19:57.150Z,72.28
2022-11-24T14:22:26.912Z,72.20
2022-11-24T14:24:56.369Z,73.25
2022-11-24T14:27:29.875Z,71.75
2022-11-24T14:30:18.947Z,71.76
2022-11-24T14:33:03.990Z,72.20
2022-11-24T14:35:34.361Z,72.29
2022-11-24T14:38:03.822Z,72.47
2022-11-24T14:40:48.464Z,72.99
2022-11-24T14:43:22.563Z,72.89
2022-11-24T14:46:09.175Z,73.37
2022-11-24T14:48:39.047Z,74.21
2022-11-24T14:51:07.208Z,73.83
2022-11-24T14:53:35.581Z,73.09
2022-11-24T14:56:23.831Z,72.89
2022-11-24T14:58:52.968Z,73.14
2022-11-24T15:01:28.411Z,73.54
2022-11-24T15:04:54.550Z,73.21
2022-11-24T15:07:26.046Z,73.99
2022-11-24T15:09:58.183Z,74.41
2022-11-24T15:12:40.791Z,74.45
2022-11-24T15:15:14.129Z,74.53
2022-11-24T15:17:55.607Z,76.01
2022-11-24T15:20:46.141Z,76.14
2022-11-24T15:23:13.666Z,76.54
2022-11-24T15:25:41.287Z,77.20
2022-11-24T15:28:09.277Z,77.62
2022-11-24T15:30:37.658Z,77.30
2022-11-24T15:33:14.729Z,77.02
2022-11-24T15:35:42.783Z,77.80
2022-11-24T15:38:10.863Z,77.89
2022-11-24T15:40:39.490Z,77.46
2022-11-24T15:43:25.242Z,78.24
2022-11-24T15:45:52.962Z,78.12
2022-11-24T15:48:20.490Z,78.24
2022-11-24T15:50:49.057Z,78.68
2022-11-24T15:53:35.720Z,78.78
2022-11-24T15:56:06.241Z,78.96
2022-11-24T15:58:33.965Z,78.45
2022-11-24T16:01:01.474Z,78.90
2022-11-24T16:06:24.693Z,79.15
2022-11-24T16:08:53.908Z,78.32
2022-11-24T16:11:22.563Z,78.44
2022-11-24T16:13:53.301Z,78.46
2022-11-24T16:16:24.804Z,78.76
2022-11-24T16:18:52.757Z,78.89
2022-11-24T16:21:20.643Z,78.94
2022-11-24T16:23:48.791Z,78.92
2022-11-24T16:26:16.327Z,79.63
2022-11-24T16:28:45.811Z,80.19
2022-11-24T16:31:15.799Z,79.40
2022-11-24T16:33:45.358Z,80.07
2022-11-24T16:36:14.401Z,79.97
2022-11-24T16:38:42.148Z,80.58
2022-11-24T16:41:10.414Z,79.67
2022-11-24T16:43:38.436Z,80.30
2022-11-24T16:46:19.356Z,80.26
2022-11-24T16:48:49.404Z,80.51
2022-11-24T16:51:18.308Z,81.44
2022-11-24T16:53:46.274Z,81.26
2022-11-24T16:56:14.814Z,80.89
2022-11-24T16:58:42.334Z,81.08
2022-11-24T17:01:12.372Z,81.17
2022-11-24T17:03:41.011Z,81.10
2022-11-24T17:06:13.482Z,82.03
2022-11-24T17:08:42.082Z,81.49
2022-11-24T17:11:10.562Z,81.55
2022-11-24T17:13:38.926Z,81.36
2022-11-24T17:16:10.203Z,81.06
2022-11-24T17:18:38.980Z,81.48
2022-11-24T17:21:11.967Z,82.09
2022-11-24T17:23:40.055Z,80.93
2022-11-24T17:26:11.541Z,81.97
2022-11-24T17:28:40.472Z,80.57
2022-11-24T17:31:10.408Z,80.02
2022-11-24T17:33:37.998Z,80.79
2022-11-24T17:36:06.714Z,80.64
2022-11-24T17:38:35.158Z,82.29
2022-11-24T17:41:03.037Z,81.88
2022-11-24T17:43:30.756Z,82.73
2022-11-24T17:46:01.965Z,83.20
2022-11-24T17:48:31.135Z,82.92
2022-11-24T17:51:04.486Z,82.77
2022-11-24T17:53:32.193Z,82.49
2022-11-24T17:56:00.975Z,82.77
2022-11-24T17:58:30.415Z,82.99
2022-11-24T18:00:59.422Z,82.48
2022-11-24T18:03:28.696Z,82.52
2022-11-24T18:05:56.279Z,82.49
2022-11-24T18:08:24.313Z,82.72
2022-11-24T18:10:52.027Z,83.10
2022-11-24T18:13:48.448Z,82.94
2022-11-24T18:16:10.381Z,82.35
2022-11-24T18:18:40.369Z,82.51
2022-11-24T18:21:17.342Z,82.73
2022-11-24T18:23:46.671Z,83.17
2022-11-24T18:26:15.940Z,83.66
2022-11-24T18:28:44.681Z,83.70
2022-11-24T18:31:15.502Z,83.28
2022-11-24T18:33:44.133Z,83.55
2022-11-24T18:36:17.731Z,84.11
2022-11-24T18:38:46.012Z,83.62
2022-11-24T18:41:14.775Z,83.32
2022-11-24T18:43:43.283Z,84.30
2022-11-24T18:46:16.297Z,83.90
2022-11-24T18:48:45.837Z,84.33
2022-11-24T18:51:16.259Z,83.61
2022-11-24T18:53:45.810Z,83.96
2022-11-24T18:56:16.264Z,83.64
2022-11-24T18:58:44.567Z,83.86
2022-11-24T19:01:14.952Z,84.20
2022-11-24T19:03:48.916Z,84.90
2022-11-24T19:06:18.502Z,84.54
2022-11-24T19:08:47.712Z,84.15
2022-11-24T19:11:22.774Z,84.46
2022-11-24T19:13:50.821Z,83.95
2022-11-24T19:16:20.026Z,84.32
2022-11-24T19:18:53.707Z,84.38
2022-11-24T19:21:22.864Z,83.42
2022-11-24T19:23:50.667Z,82.78
2022-11-24T19:26:18.839Z,83.15
2022-11-24T19:28:48.172Z,82.95
2022-11-24T19:31:18.075Z,83.92
2022-11-24T19:33:46.157Z,83.96
2022-11-24T19:36:16.930Z,84.35
2022-11-24T19:38:55.811Z,83.88
2022-11-24T19:41:26.503Z,83.79
2022-11-24T19:43:54.995Z,83.12
2022-11-24T19:46:27.127Z,82.44
2022-11-24T19:48:57.187Z,82.02
2022-11-24T19:51:28.373Z,81.98
2022-11-24T19:53:56.942Z,81.73
2022-11-24T19:56:27.783Z,81.74
2022-11-24T19:58:55.970Z,82.00
2022-11-24T20:01:26.362Z,81.29
2022-11-24T20:04:00.293Z,80.52
2022-11-24T20:06:32.811Z,81.27
2022-11-24T20:09:01.257Z,80.59
2022-11-24T20:11:29.867Z,80.08
2022-11-24T20:13:58.189Z,80.30
2022-11-24T20:16:31.001Z,78.95
2022-11-24T20:19:01.540Z,79.72
2022-11-24T20:21:32.583Z,80.69
2022-11-24T20:24:03.977Z,81.50
2022-11-24T20:26:35.478Z,80.93
2022-11-24T20:29:05.228Z,81.71
2022-11-24T20:31:35.890Z,83.25
2022-11-24T20:34:05.946Z,81.70
2022-11-24T20:36:35.623Z,81.77
2022-11-24T20:39:06.648Z,81.17
2022-11-24T20:41:36.398Z,81.80
2022-11-24T20:44:10.602Z,82.42
2022-11-24T20:46:40.342Z,81.94
2022-11-24T20:49:10.739Z,82.07
2022-11-24T20:51:41.940Z,81.53
2022-11-24T20:54:11.224Z,80.82
2022-11-24T20:56:41.418Z,81.22
2022-11-24T20:59:13.737Z,81.00
2022-11-24T21:01:45.363Z,80.56
2022-11-24T21:04:16.925Z,80.96
2022-11-24T21:06:44.778Z,81.55
2022-11-24T21:09:13.738Z,81.84
2022-11-24T21:11:41.424Z,82.15
2022-11-24T21:14:09.688Z,84.16
2022-11-24T21:16:38.884Z,83.52
2022-11-24T21:19:18.277Z,82.68
2022-11-24T21:21:47.724Z,81.24
2022-11-24T21:24:17.640Z,81.16
2022-11-24T21:26:51.288Z,81.81
2022-11-24T21:29:22.193Z,81.94
2022-11-24T21:31:49.994Z,81.30
2022-11-24T21:34:20.942Z,81.24
2022-11-24T21:36:48.445Z,81.41
2022-11-24T21:39:16.288Z,81.83
2022-11-24T21:41:44.085Z,81.85
2022-11-24T21:44:13.475Z,83.95
2022-11-24T21:46:46.133Z,83.98
2022-11-24T21:49:18.573Z,84.33
2022-11-24T21:51:48.166Z,83.66
2022-11-24T21:54:15.620Z,83.99
2022-11-24T21:56:43.117Z,84.36
2022-11-24T21:59:10.758Z,83.71
2022-11-24T22:01:38.536Z,83.88
2022-11-24T22:04:09.911Z,83.79
2022-11-24T22:06:37.859Z,84.12
2022-11-24T22:09:05.336Z,84.78
2022-11-24T22:11:32.782Z,84.56
2022-11-24T22:14:00.315Z,83.31
2022-11-24T22:16:28.144Z,83.96
2022-11-24T22:18:55.842Z,84.24
2022-11-24T22:21:29.234Z,84.83
2022-11-24T22:23:56.948Z,85.03
2022-11-24T22:26:25.559Z,84.01
2022-11-24T22:28:57.381Z,83.68
2022-11-24T22:31:27.773Z,84.11
2022-11-24T22:33:56.629Z,84.18
2022-11-24T22:36:26.208Z,84.42
2022-11-24T22:39:04.764Z,84.67
2022-11-24T22:41:34.249Z,83.87
2022-11-24T22:44:02.381Z,84.47
2022-11-24T22:46:31.095Z,84.10
2022-11-24T22:49:00.977Z,83.84
2022-11-24T22:51:31.495Z,84.79
2022-11-24T22:54:02.315Z,83.82
2022-11-24T22:56:32.473Z,83.88
2022-11-24T22:59:01.544Z,84.70
2022-11-24T23:01:30.571Z,83.68
2022-11-24T23:03:58.119Z,83.60
2022-11-24T23:06:28.462Z,83.51
2022-11-24T23:08:57.519Z,84.75
2022-11-24T23:11:36.419Z,84.68
2022-11-24T23:14:13.283Z,83.69
2022-11-24T23:16:41.293Z,84.01
2022-11-24T23:19:10.093Z,84.51
2022-11-24T23:21:38.612Z,84.38
2022-11-24T23:24:08.458Z,85.75
2022-11-24T23:26:38.574Z,85.04
2022-11-24T23:29:07.257Z,84.85
2022-11-24T23:31:35.576Z,84.24
2022-11-24T23:34:04.034Z,84.91
2022-11-24T23:36:32.545Z,84.38
2022-11-24T23:39:08.053Z,84.98
2022-11-24T23:41:35.892Z,85.36
2022-11-24T23:44:03.775Z,85.67
2022-11-24T23:46:31.353Z,84.47
2022-11-24T23:48:59.368Z,84.57
2022-11-24T23:51:31.906Z,84.23
2022-11-24T23:54:00.336Z,84.12
2022-11-24T23:56:32.658Z,84.75
2022-11-24T23:59:02.409Z,85.17
